sensor_id;sensor_type;location;lat;lon;timestamp;temperature;humidity
36212;DHT22;22247;48.586;13.492;2023-01-05T00:01:40;9.50;99.90
36212;DHT22;22247;48.586;13.492;2023-01-05T00:04:14;9.50;99.90
36212;DHT22;22247;48.586;13.492;2023-01-05T00:06:40;9.60;99.90
36212;DHT22;22247;48.586;13.492;2023-01-05T00:09:08;9.60;99.90
36212;DHT22;22247;48.586;13.492;2023-01-05T00:14:26;9.60;99.90
36212;DHT22;22247;48.586;13.492;2023-01-05T00:17:14;9.60;99.90
36212;DHT22;22247;48.586;13.492;2023-01-05T00:19:59;9.60;99.90
36212;DHT22;22247;48.586;13.492;2023-01-05T00:25:24;9.70;99.90
36212;DHT22;22247;48.586;13.492;2023-01-05T00:28:02;9.70;99.90
36212;DHT22;22247;48.586;13.492;2023-01-05T00:30:43;9.70;99.90
36212;DHT22;22247;48.586;13.492;2023-01-05T00:33:17;9.80;99.90
36212;DHT22;22247;48.586;13.492;2023-01-05T00:35:46;9.80;99.90
36212;DHT22;22247;48.586;13.492;2023-01-05T00:38:21;9.80;99.90
36212;DHT22;22247;48.586;13.492;2023-01-05T00:40:50;9.80;99.90
36212;DHT22;22247;48.586;13.492;2023-01-05T00:43:15;9.80;99.90
36212;DHT22;22247;48.586;13.492;2023-01-05T00:45:47;9.80;99.90
36212;DHT22;22247;48.586;13.492;2023-01-05T00:48:16;9.90;99.90
36212;DHT22;22247;48.586;13.492;2023-01-05T00:50:50;9.90;99.90
36212;DHT22;22247;48.586;13.492;2023-01-05T00:53:19;9.90;99.90
36212;DHT22;22247;48.586;13.492;2023-01-05T00:55:56;10.00;99.90
36212;DHT22;22247;48.586;13.492;2023-01-05T00:58:25;9.80;99.90
36212;DHT22;22247;48.586;13.492;2023-01-05T01:00:50;9.90;99.90
36212;DHT22;22247;48.586;13.492;2023-01-05T01:03:16;9.90;99.90
36212;DHT22;22247;48.586;13.492;2023-01-05T01:05:56;9.90;99.90
36212;DHT22;22247;48.586;13.492;2023-01-05T01:08:25;9.80;99.90
36212;DHT22;22247;48.586;13.492;2023-01-05T01:11:12;9.70;99.90
36212;DHT22;22247;48.586;13.492;2023-01-05T01:13:46;9.80;99.90
36212;DHT22;22247;48.586;13.492;2023-01-05T01:16:13;9.70;99.90
36212;DHT22;22247;48.586;13.492;2023-01-05T01:18:45;9.60;99.90
36212;DHT22;22247;48.586;13.492;2023-01-05T01:21:14;9.50;99.90
36212;DHT22;22247;48.586;13.492;2023-01-05T01:23:45;9.60;99.90
36212;DHT22;22247;48.586;13.492;2023-01-05T01:26:25;9.60;99.90
36212;DHT22;22247;48.586;13.492;2023-01-05T01:28:54;9.60;99.90
36212;DHT22;22247;48.586;13.492;2023-01-05T01:31:26;9.60;99.90
36212;DHT22;22247;48.586;13.492;2023-01-05T01:33:52;9.70;99.90
36212;DHT22;22247;48.586;13.492;2023-01-05T01:36:18;9.70;99.90
36212;DHT22;22247;48.586;13.492;2023-01-05T01:38:55;9.70;99.90
36212;DHT22;22247;48.586;13.492;2023-01-05T01:41:30;9.70;99.90
36212;DHT22;22247;48.586;13.492;2023-01-05T01:43:56;9.80;99.90
36212;DHT22;22247;48.586;13.492;2023-01-05T01:46:23;9.70;99.90
36212;DHT22;22247;48.586;13.492;2023-01-05T01:49:04;9.70;99.90
36212;DHT22;22247;48.586;13.492;2023-01-05T01:51:50;9.80;99.90
36212;DHT22;22247;48.586;13.492;2023-01-05T01:56:58;9.90;99.90
36212;DHT22;22247;48.586;13.492;2023-01-05T02:02:21;10.00;99.90
36212;DHT22;22247;48.586;13.492;2023-01-05T02:05:09;9.90;99.90
36212;DHT22;22247;48.586;13.492;2023-01-05T02:07:39;10.00;99.90
36212;DHT22;22247;48.586;13.492;2023-01-05T02:10:10;10.00;99.90
36212;DHT22;22247;48.586;13.492;2023-01-05T02:15:08;10.00;99.90
36212;DHT22;22247;48.586;13.492;2023-01-05T02:20:14;9.90;99.90
36212;DHT22;22247;48.586;13.492;2023-01-05T02:38:36;10.10;99.90
36212;DHT22;22247;48.586;13.492;2023-01-05T02:41:05;10.10;99.90
36212;DHT22;22247;48.586;13.492;2023-01-05T02:43:32;10.10;99.90
36212;DHT22;22247;48.586;13.492;2023-01-05T02:46:00;10.10;99.90
36212;DHT22;22247;48.586;13.492;2023-01-05T02:48:28;10.10;99.90
36212;DHT22;22247;48.586;13.492;2023-01-05T02:50:55;10.10;99.90
36212;DHT22;22247;48.586;13.492;2023-01-05T02:53:32;10.10;99.90
36212;DHT22;22247;48.586;13.492;2023-01-05T02:56:03;10.10;99.90
36212;DHT22;22247;48.586;13.492;2023-01-05T02:58:35;10.20;99.90
36212;DHT22;22247;48.586;13.492;2023-01-05T03:03:40;10.30;99.90
36212;DHT22;22247;48.586;13.492;2023-01-05T03:06:18;10.40;99.90
36212;DHT22;22247;48.586;13.492;2023-01-05T03:08:49;10.40;99.90
36212;DHT22;22247;48.586;13.492;2023-01-05T03:11:16;10.40;99.90
36212;DHT22;22247;48.586;13.492;2023-01-05T03:14:46;10.50;99.90
36212;DHT22;22247;48.586;13.492;2023-01-05T03:16:46;10.50;99.90
36212;DHT22;22247;48.586;13.492;2023-01-05T03:19:14;10.50;99.90
36212;DHT22;22247;48.586;13.492;2023-01-05T03:22:02;10.50;99.90
36212;DHT22;22247;48.586;13.492;2023-01-05T03:24:47;10.50;99.90
36212;DHT22;22247;48.586;13.492;2023-01-05T03:27:31;10.40;99.90
36212;DHT22;22247;48.586;13.492;2023-01-05T03:30:18;10.30;99.90
36212;DHT22;22247;48.586;13.492;2023-01-05T03:33:16;10.40;99.90
36212;DHT22;22247;48.586;13.492;2023-01-05T03:36:01;10.50;99.90
36212;DHT22;22247;48.586;13.492;2023-01-05T03:38:35;10.50;99.90
36212;DHT22;22247;48.586;13.492;2023-01-05T03:41:06;10.60;99.90
36212;DHT22;22247;48.586;13.492;2023-01-05T03:43:34;10.50;99.90
36212;DHT22;22247;48.586;13.492;2023-01-05T03:46:08;10.60;99.90
36212;DHT22;22247;48.586;13.492;2023-01-05T03:48:34;10.60;99.90
36212;DHT22;22247;48.586;13.492;2023-01-05T03:50:59;10.60;99.90
36212;DHT22;22247;48.586;13.492;2023-01-05T03:53:24;10.60;99.90
36212;DHT22;22247;48.586;13.492;2023-01-05T03:55:50;10.60;99.90
36212;DHT22;22247;48.586;13.492;2023-01-05T03:58:15;10.60;99.90
36212;DHT22;22247;48.586;13.492;2023-01-05T04:00:41;10.60;99.90
36212;DHT22;22247;48.586;13.492;2023-01-05T04:03:06;10.50;99.90
36212;DHT22;22247;48.586;13.492;2023-01-05T04:05:35;10.60;99.90
36212;DHT22;22247;48.586;13.492;2023-01-05T04:08:00;10.60;99.90
36212;DHT22;22247;48.586;13.492;2023-01-05T04:10:26;10.60;99.90
36212;DHT22;22247;48.586;13.492;2023-01-05T04:12:51;10.60;99.90
36212;DHT22;22247;48.586;13.492;2023-01-05T04:15:19;10.70;99.90
36212;DHT22;22247;48.586;13.492;2023-01-05T04:17:44;10.70;99.90
36212;DHT22;22247;48.586;13.492;2023-01-05T04:20:10;10.70;99.90
36212;DHT22;22247;48.586;13.492;2023-01-05T04:22:35;10.60;99.90
36212;DHT22;22247;48.586;13.492;2023-01-05T04:25:01;10.60;99.90
36212;DHT22;22247;48.586;13.492;2023-01-05T04:27:26;10.70;99.90
36212;DHT22;22247;48.586;13.492;2023-01-05T04:29:52;10.70;99.90
36212;DHT22;22247;48.586;13.492;2023-01-05T04:32:20;10.60;99.90
36212;DHT22;22247;48.586;13.492;2023-01-05T04:34:48;10.70;99.90
36212;DHT22;22247;48.586;13.492;2023-01-05T04:37:13;10.70;99.90
36212;DHT22;22247;48.586;13.492;2023-01-05T04:39:39;10.70;99.90
36212;DHT22;22247;48.586;13.492;2023-01-05T04:42:04;10.80;99.90
36212;DHT22;22247;48.586;13.492;2023-01-05T04:44:30;10.70;99.90
36212;DHT22;22247;48.586;13.492;2023-01-05T04:46:55;10.70;99.90
36212;DHT22;22247;48.586;13.492;2023-01-05T04:49:21;10.80;99.90
36212;DHT22;22247;48.586;13.492;2023-01-05T04:51:46;10.80;99.90
36212;DHT22;22247;48.586;13.492;2023-01-05T04:54:11;10.90;99.90
36212;DHT22;22247;48.586;13.492;2023-01-05T04:56:37;10.90;99.90
36212;DHT22;22247;48.586;13.492;2023-01-05T04:59:05;10.80;99.90
36212;DHT22;22247;48.586;13.492;2023-01-05T05:01:30;10.80;99.90
36212;DHT22;22247;48.586;13.492;2023-01-05T05:03:56;10.80;99.90
36212;DHT22;22247;48.586;13.492;2023-01-05T05:06:24;10.80;99.90
36212;DHT22;22247;48.586;13.492;2023-01-05T05:08:49;10.80;99.90
36212;DHT22;22247;48.586;13.492;2023-01-05T05:11:17;10.80;99.90
36212;DHT22;22247;48.586;13.492;2023-01-05T05:13:43;10.90;99.90
36212;DHT22;22247;48.586;13.492;2023-01-05T05:16:08;11.60;99.90
36212;DHT22;22247;48.586;13.492;2023-01-05T05:18:36;10.80;99.90
36212;DHT22;22247;48.586;13.492;2023-01-05T05:21:07;10.70;99.90
36212;DHT22;22247;48.586;13.492;2023-01-05T05:23:32;10.80;99.90
36212;DHT22;22247;48.586;13.492;2023-01-05T05:26:00;10.70;99.90
36212;DHT22;22247;48.586;13.492;2023-01-05T05:28:25;10.70;99.90
36212;DHT22;22247;48.586;13.492;2023-01-05T05:30:53;10.70;99.90
36212;DHT22;22247;48.586;13.492;2023-01-05T05:33:21;10.60;99.90
36212;DHT22;22247;48.586;13.492;2023-01-05T05:35:47;10.70;99.90
36212;DHT22;22247;48.586;13.492;2023-01-05T05:38:12;10.80;99.90
36212;DHT22;22247;48.586;13.492;2023-01-05T05:40:40;10.80;99.90
36212;DHT22;22247;48.586;13.492;2023-01-05T05:43:08;10.70;99.90
36212;DHT22;22247;48.586;13.492;2023-01-05T05:45:36;10.70;99.90
36212;DHT22;22247;48.586;13.492;2023-01-05T05:48:06;10.80;99.90
36212;DHT22;22247;48.586;13.492;2023-01-05T05:50:34;10.80;99.90
36212;DHT22;22247;48.586;13.492;2023-01-05T05:53:02;10.70;99.90
36212;DHT22;22247;48.586;13.492;2023-01-05T05:55:28;10.70;99.90
36212;DHT22;22247;48.586;13.492;2023-01-05T05:57:56;10.70;99.90
36212;DHT22;22247;48.586;13.492;2023-01-05T06:00:24;10.70;99.90
36212;DHT22;22247;48.586;13.492;2023-01-05T06:02:51;10.70;99.90
36212;DHT22;22247;48.586;13.492;2023-01-05T06:05:17;10.80;99.90
36212;DHT22;22247;48.586;13.492;2023-01-05T06:07:42;10.70;99.90
36212;DHT22;22247;48.586;13.492;2023-01-05T06:10:08;10.60;99.90
36212;DHT22;22247;48.586;13.492;2023-01-05T06:12:36;10.70;99.90
36212;DHT22;22247;48.586;13.492;2023-01-05T06:15:02;10.80;99.90
36212;DHT22;22247;48.586;13.492;2023-01-05T06:17:30;10.80;99.90
36212;DHT22;22247;48.586;13.492;2023-01-05T06:19:56;10.70;99.90
36212;DHT22;22247;48.586;13.492;2023-01-05T06:22:21;10.70;99.90
36212;DHT22;22247;48.586;13.492;2023-01-05T06:24:49;10.70;99.90
36212;DHT22;22247;48.586;13.492;2023-01-05T06:27:14;10.80;99.90
36212;DHT22;22247;48.586;13.492;2023-01-05T06:29:40;10.70;99.90
36212;DHT22;22247;48.586;13.492;2023-01-05T06:32:05;10.80;99.90
36212;DHT22;22247;48.586;13.492;2023-01-05T06:34:33;10.70;99.90
36212;DHT22;22247;48.586;13.492;2023-01-05T06:36:59;10.70;99.90
36212;DHT22;22247;48.586;13.492;2023-01-05T06:39:24;10.80;99.90
36212;DHT22;22247;48.586;13.492;2023-01-05T06:41:52;10.80;99.90
36212;DHT22;22247;48.586;13.492;2023-01-05T06:44:17;10.90;99.90
36212;DHT22;22247;48.586;13.492;2023-01-05T06:46:43;10.90;99.90
36212;DHT22;22247;48.586;13.492;2023-01-05T06:49:11;11.00;99.90
36212;DHT22;22247;48.586;13.492;2023-01-05T06:51:36;11.00;99.90
36212;DHT22;22247;48.586;13.492;2023-01-05T06:54:04;10.90;99.90
36212;DHT22;22247;48.586;13.492;2023-01-05T06:56:30;11.00;99.90
36212;DHT22;22247;48.586;13.492;2023-01-05T06:58:55;11.00;99.90
36212;DHT22;22247;48.586;13.492;2023-01-05T07:01:21;11.00;99.90
36212;DHT22;22247;48.586;13.492;2023-01-05T07:03:46;11.00;99.90
36212;DHT22;22247;48.586;13.492;2023-01-05T07:06:12;10.90;99.90
36212;DHT22;22247;48.586;13.492;2023-01-05T07:08:40;11.00;99.90
36212;DHT22;22247;48.586;13.492;2023-01-05T07:11:08;11.00;99.90
36212;DHT22;22247;48.586;13.492;2023-01-05T07:13:36;10.90;99.90
36212;DHT22;22247;48.586;13.492;2023-01-05T07:16:01;11.00;99.90
36212;DHT22;22247;48.586;13.492;2023-01-05T07:20:53;10.90;99.90
36212;DHT22;22247;48.586;13.492;2023-01-05T07:23:18;10.90;99.90
36212;DHT22;22247;48.586;13.492;2023-01-05T07:25:44;10.90;99.90
36212;DHT22;22247;48.586;13.492;2023-01-05T07:28:12;10.90;99.90
36212;DHT22;22247;48.586;13.492;2023-01-05T07:30:38;10.90;99.90
36212;DHT22;22247;48.586;13.492;2023-01-05T07:33:05;10.90;99.90
36212;DHT22;22247;48.586;13.492;2023-01-05T07:35:31;10.90;99.90
36212;DHT22;22247;48.586;13.492;2023-01-05T07:37:59;10.90;99.90
36212;DHT22;22247;48.586;13.492;2023-01-05T07:40:24;10.90;99.90
36212;DHT22;22247;48.586;13.492;2023-01-05T07:42:50;10.80;99.90
36212;DHT22;22247;48.586;13.492;2023-01-05T07:45:18;10.80;99.90
36212;DHT22;22247;48.586;13.492;2023-01-05T07:47:44;10.80;99.90
36212;DHT22;22247;48.586;13.492;2023-01-05T07:50:10;10.90;99.90
36212;DHT22;22247;48.586;13.492;2023-01-05T07:52:35;11.00;99.90
36212;DHT22;22247;48.586;13.492;2023-01-05T07:55:03;11.00;99.90
36212;DHT22;22247;48.586;13.492;2023-01-05T07:57:29;11.00;99.90
36212;DHT22;22247;48.586;13.492;2023-01-05T07:59:59;11.00;99.90
36212;DHT22;22247;48.586;13.492;2023-01-05T08:02:26;11.00;99.90
36212;DHT22;22247;48.586;13.492;2023-01-05T08:04:54;11.10;99.90
36212;DHT22;22247;48.586;13.492;2023-01-05T08:07:22;11.10;99.90
36212;DHT22;22247;48.586;13.492;2023-01-05T08:09:47;11.10;99.90
36212;DHT22;22247;48.586;13.492;2023-01-05T08:12:39;11.10;99.90
36212;DHT22;22247;48.586;13.492;2023-01-05T08:15:23;11.00;99.90
36212;DHT22;22247;48.586;13.492;2023-01-05T08:17:49;11.10;99.90
36212;DHT22;22247;48.586;13.492;2023-01-05T08:20:17;11.20;99.90
36212;DHT22;22247;48.586;13.492;2023-01-05T08:22:50;11.20;99.90
36212;DHT22;22247;48.586;13.492;2023-01-05T08:25:16;11.20;99.90
36212;DHT22;22247;48.586;13.492;2023-01-05T08:27:41;11.10;99.90
36212;DHT22;22247;48.586;13.492;2023-01-05T08:30:07;11.10;99.90
36212;DHT22;22247;48.586;13.492;2023-01-05T08:32:35;11.20;99.90
36212;DHT22;22247;48.586;13.492;2023-01-05T08:35:05;11.10;99.90
36212;DHT22;22247;48.586;13.492;2023-01-05T08:37:31;11.70;99.90
36212;DHT22;22247;48.586;13.492;2023-01-05T08:39:58;11.00;99.90
36212;DHT22;22247;48.586;13.492;2023-01-05T08:42:24;10.90;99.90
36212;DHT22;22247;48.586;13.492;2023-01-05T08:44:52;10.80;99.90
36212;DHT22;22247;48.586;13.492;2023-01-05T08:47:22;10.70;99.90
36212;DHT22;22247;48.586;13.492;2023-01-05T08:49:50;10.70;99.90
36212;DHT22;22247;48.586;13.492;2023-01-05T08:52:17;10.50;99.90
36212;DHT22;22247;48.586;13.492;2023-01-05T08:54:43;10.50;99.90
36212;DHT22;22247;48.586;13.492;2023-01-05T08:57:11;10.50;99.90
36212;DHT22;22247;48.586;13.492;2023-01-05T08:59:39;10.40;99.90
36212;DHT22;22247;48.586;13.492;2023-01-05T09:02:05;10.50;99.90
36212;DHT22;22247;48.586;13.492;2023-01-05T09:04:30;10.50;99.90
36212;DHT22;22247;48.586;13.492;2023-01-05T09:06:56;10.50;99.90
36212;DHT22;22247;48.586;13.492;2023-01-05T09:09:24;10.40;99.90
36212;DHT22;22247;48.586;13.492;2023-01-05T09:11:49;10.30;99.90
36212;DHT22;22247;48.586;13.492;2023-01-05T09:14:15;10.30;99.90
36212;DHT22;22247;48.586;13.492;2023-01-05T09:16:43;10.20;99.90
36212;DHT22;22247;48.586;13.492;2023-01-05T09:19:11;10.10;99.90
36212;DHT22;22247;48.586;13.492;2023-01-05T09:21:36;10.00;99.90
36212;DHT22;22247;48.586;13.492;2023-01-05T09:24:09;9.90;99.90
36212;DHT22;22247;48.586;13.492;2023-01-05T09:26:37;9.90;99.90
36212;DHT22;22247;48.586;13.492;2023-01-05T09:29:05;9.90;99.90
36212;DHT22;22247;48.586;13.492;2023-01-05T09:31:30;9.80;99.90
36212;DHT22;22247;48.586;13.492;2023-01-05T09:33:58;9.90;99.90
36212;DHT22;22247;48.586;13.492;2023-01-05T09:36:24;9.90;99.90
36212;DHT22;22247;48.586;13.492;2023-01-05T09:38:53;9.90;99.90
36212;DHT22;22247;48.586;13.492;2023-01-05T09:43:44;9.90;99.90
36212;DHT22;22247;48.586;13.492;2023-01-05T09:46:14;9.90;99.90
36212;DHT22;22247;48.586;13.492;2023-01-05T09:48:42;9.90;99.90
36212;DHT22;22247;48.586;13.492;2023-01-05T09:51:11;9.90;99.90
36212;DHT22;22247;48.586;13.492;2023-01-05T09:53:37;10.00;99.90
36212;DHT22;22247;48.586;13.492;2023-01-05T09:56:03;9.90;99.90
36212;DHT22;22247;48.586;13.492;2023-01-05T09:58:30;10.10;99.90
36212;DHT22;22247;48.586;13.492;2023-01-05T10:01:14;10.00;99.90
36212;DHT22;22247;48.586;13.492;2023-01-05T10:06:35;10.00;99.90
36212;DHT22;22247;48.586;13.492;2023-01-05T10:09:02;10.00;99.90
36212;DHT22;22247;48.586;13.492;2023-01-05T10:14:27;10.00;99.90
36212;DHT22;22247;48.586;13.492;2023-01-05T10:16:55;10.10;99.90
36212;DHT22;22247;48.586;13.492;2023-01-05T10:19:20;10.10;99.90
36212;DHT22;22247;48.586;13.492;2023-01-05T10:21:49;10.10;99.90
36212;DHT22;22247;48.586;13.492;2023-01-05T10:24:26;10.10;99.90
36212;DHT22;22247;48.586;13.492;2023-01-05T10:27:06;10.00;99.90
36212;DHT22;22247;48.586;13.492;2023-01-05T10:32:26;10.10;99.90
36212;DHT22;22247;48.586;13.492;2023-01-05T10:35:02;10.00;99.90
36212;DHT22;22247;48.586;13.492;2023-01-05T10:37:37;10.00;99.90
36212;DHT22;22247;48.586;13.492;2023-01-05T10:40:10;10.00;99.90
36212;DHT22;22247;48.586;13.492;2023-01-05T10:45:23;10.10;99.90
36212;DHT22;22247;48.586;13.492;2023-01-05T10:47:51;10.10;99.90
36212;DHT22;22247;48.586;13.492;2023-01-05T10:53:35;10.10;99.90
36212;DHT22;22247;48.586;13.492;2023-01-05T10:58:36;10.30;99.90
36212;DHT22;22247;48.586;13.492;2023-01-05T11:01:28;9.90;99.90
36212;DHT22;22247;48.586;13.492;2023-01-05T11:04:08;10.20;99.90
36212;DHT22;22247;48.586;13.492;2023-01-05T11:06:41;10.30;99.90
36212;DHT22;22247;48.586;13.492;2023-01-05T11:09:30;10.30;99.90
36212;DHT22;22247;48.586;13.492;2023-01-05T11:14:39;10.20;99.90
36212;DHT22;22247;48.586;13.492;2023-01-05T11:17:06;10.30;99.90
36212;DHT22;22247;48.586;13.492;2023-01-05T11:19:46;10.30;99.90
36212;DHT22;22247;48.586;13.492;2023-01-05T11:22:38;10.20;99.90
36212;DHT22;22247;48.586;13.492;2023-01-05T11:25:23;10.00;99.90
36212;DHT22;22247;48.586;13.492;2023-01-05T11:28:09;10.40;99.90
36212;DHT22;22247;48.586;13.492;2023-01-05T11:30:58;10.20;99.90
36212;DHT22;22247;48.586;13.492;2023-01-05T11:33:31;10.20;99.90
36212;DHT22;22247;48.586;13.492;2023-01-05T11:38:31;10.10;99.90
36212;DHT22;22247;48.586;13.492;2023-01-05T11:40:58;10.00;99.90
36212;DHT22;22247;48.586;13.492;2023-01-05T11:43:26;10.50;99.90
36212;DHT22;22247;48.586;13.492;2023-01-05T11:45:55;10.40;99.90
36212;DHT22;22247;48.586;13.492;2023-01-05T11:48:33;9.90;99.90
36212;DHT22;22247;48.586;13.492;2023-01-05T11:51:02;10.40;99.90
36212;DHT22;22247;48.586;13.492;2023-01-05T11:58:45;10.30;99.90
36212;DHT22;22247;48.586;13.492;2023-01-05T12:16:48;10.30;99.90
36212;DHT22;22247;48.586;13.492;2023-01-05T12:32:47;10.30;99.90
36212;DHT22;22247;48.586;13.492;2023-01-05T12:49:16;10.30;99.90
36212;DHT22;22247;48.586;13.492;2023-01-05T12:51:54;10.70;99.90
36212;DHT22;22247;48.586;13.492;2023-01-05T12:57:09;10.60;99.90
36212;DHT22;22247;48.586;13.492;2023-01-05T13:22:33;10.30;99.90
36212;DHT22;22247;48.586;13.492;2023-01-05T13:27:27;10.30;99.90
36212;DHT22;22247;48.586;13.492;2023-01-05T13:30:00;10.80;99.90
36212;DHT22;22247;48.586;13.492;2023-01-05T13:51:35;10.20;99.90
36212;DHT22;22247;48.586;13.492;2023-01-05T13:54:15;10.20;99.90
36212;DHT22;22247;48.586;13.492;2023-01-05T13:56:42;10.20;99.90
36212;DHT22;22247;48.586;13.492;2023-01-05T14:01:56;10.10;99.90
36212;DHT22;22247;48.586;13.492;2023-01-05T14:04:26;10.10;99.90
36212;DHT22;22247;48.586;13.492;2023-01-05T14:07:14;10.60;99.90
36212;DHT22;22247;48.586;13.492;2023-01-05T14:09:52;10.30;99.90
36212;DHT22;22247;48.586;13.492;2023-01-05T14:15:04;10.10;99.90
36212;DHT22;22247;48.586;13.492;2023-01-05T14:20:44;9.80;99.90
36212;DHT22;22247;48.586;13.492;2023-01-05T14:42:05;10.00;99.90
36212;DHT22;22247;48.586;13.492;2023-01-05T14:45:01;9.90;99.90
36212;DHT22;22247;48.586;13.492;2023-01-05T14:47:42;9.40;99.90
36212;DHT22;22247;48.586;13.492;2023-01-05T14:55:41;9.90;99.90
36212;DHT22;22247;48.586;13.492;2023-01-05T15:06:45;9.80;99.90
36212;DHT22;22247;48.586;13.492;2023-01-05T15:33:47;9.40;99.90
36212;DHT22;22247;48.586;13.492;2023-01-05T15:36:39;9.20;99.90
36212;DHT22;22247;48.586;13.492;2023-01-05T15:39:31;9.40;99.90
36212;DHT22;22247;48.586;13.492;2023-01-05T15:42:00;9.60;99.90
36212;DHT22;22247;48.586;13.492;2023-01-05T15:44:36;9.40;99.90
36212;DHT22;22247;48.586;13.492;2023-01-05T15:47:06;9.30;99.90
36212;DHT22;22247;48.586;13.492;2023-01-05T15:49:33;9.20;99.90
36212;DHT22;22247;48.586;13.492;2023-01-05T15:51:59;9.50;99.90
36212;DHT22;22247;48.586;13.492;2023-01-05T15:54:30;9.40;99.90
36212;DHT22;22247;48.586;13.492;2023-01-05T15:56:57;9.30;99.90
36212;DHT22;22247;48.586;13.492;2023-01-05T15:59:38;9.50;99.90
36212;DHT22;22247;48.586;13.492;2023-01-05T16:02:26;9.10;99.90
36212;DHT22;22247;48.586;13.492;2023-01-05T16:10:40;9.10;99.90
36212;DHT22;22247;48.586;13.492;2023-01-05T16:15:40;8.80;99.90
36212;DHT22;22247;48.586;13.492;2023-01-05T16:18:15;9.10;99.90
36212;DHT22;22247;48.586;13.492;2023-01-05T16:23:15;9.10;99.90
36212;DHT22;22247;48.586;13.492;2023-01-05T16:25:56;9.10;99.90
36212;DHT22;22247;48.586;13.492;2023-01-05T16:28:23;9.10;99.90
36212;DHT22;22247;48.586;13.492;2023-01-05T16:30:50;9.10;99.90
36212;DHT22;22247;48.586;13.492;2023-01-05T16:33:33;9.10;99.90
36212;DHT22;22247;48.586;13.492;2023-01-05T16:36:16;9.00;99.90
36212;DHT22;22247;48.586;13.492;2023-01-05T16:41:18;8.30;99.90
36212;DHT22;22247;48.586;13.492;2023-01-05T16:43:57;9.40;99.90
36212;DHT22;22247;48.586;13.492;2023-01-05T16:49:25;8.80;99.90
36212;DHT22;22247;48.586;13.492;2023-01-05T16:51:53;8.90;99.90
36212;DHT22;22247;48.586;13.492;2023-01-05T16:59:59;8.80;99.90
36212;DHT22;22247;48.586;13.492;2023-01-05T17:05:11;9.00;99.90
36212;DHT22;22247;48.586;13.492;2023-01-05T17:07:39;9.20;99.90
36212;DHT22;22247;48.586;13.492;2023-01-05T17:15:17;9.20;99.90
36212;DHT22;22247;48.586;13.492;2023-01-05T17:17:45;9.20;99.90
36212;DHT22;22247;48.586;13.492;2023-01-05T17:20:13;8.80;99.90
36212;DHT22;22247;48.586;13.492;2023-01-05T17:25:05;9.00;99.90
36212;DHT22;22247;48.586;13.492;2023-01-05T17:27:31;9.20;99.90
36212;DHT22;22247;48.586;13.492;2023-01-05T17:32:25;8.50;99.90
36212;DHT22;22247;48.586;13.492;2023-01-05T17:39:45;8.70;99.90
36212;DHT22;22247;48.586;13.492;2023-01-05T17:44:55;8.40;99.90
36212;DHT22;22247;48.586;13.492;2023-01-05T17:47:23;9.30;99.90
36212;DHT22;22247;48.586;13.492;2023-01-05T17:52:17;8.90;99.90
36212;DHT22;22247;48.586;13.492;2023-01-05T18:12:03;8.60;99.90
36212;DHT22;22247;48.586;13.492;2023-01-05T18:16:54;8.50;99.90
36212;DHT22;22247;48.586;13.492;2023-01-05T18:21:48;8.50;99.90
36212;DHT22;22247;48.586;13.492;2023-01-05T18:29:08;8.30;99.90
36212;DHT22;22247;48.586;13.492;2023-01-05T18:36:28;8.40;99.90
36212;DHT22;22247;48.586;13.492;2023-01-05T18:41:23;8.80;99.90
36212;DHT22;22247;48.586;13.492;2023-01-05T18:43:51;8.50;99.90
36212;DHT22;22247;48.586;13.492;2023-01-05T18:46:19;7.90;99.90
36212;DHT22;22247;48.586;13.492;2023-01-05T18:48:53;8.80;99.90
36212;DHT22;22247;48.586;13.492;2023-01-05T18:56:17;8.40;99.90
36212;DHT22;22247;48.586;13.492;2023-01-05T19:01:16;8.50;99.90
36212;DHT22;22247;48.586;13.492;2023-01-05T19:03:42;7.80;99.90
36212;DHT22;22247;48.586;13.492;2023-01-05T19:06:12;8.20;99.90
36212;DHT22;22247;48.586;13.492;2023-01-05T19:08:42;8.10;99.90
36212;DHT22;22247;48.586;13.492;2023-01-05T19:11:22;8.50;99.90
36212;DHT22;22247;48.586;13.492;2023-01-05T19:13:48;8.10;99.90
36212;DHT22;22247;48.586;13.492;2023-01-05T19:16:18;7.40;99.90
36212;DHT22;22247;48.586;13.492;2023-01-05T19:18:53;8.10;99.90
36212;DHT22;22247;48.586;13.492;2023-01-05T19:23:55;8.00;99.90
36212;DHT22;22247;48.586;13.492;2023-01-05T19:38:59;8.00;99.90
36212;DHT22;22247;48.586;13.492;2023-01-05T19:41:25;8.00;99.90
36212;DHT22;22247;48.586;13.492;2023-01-05T19:43:52;8.00;99.90
36212;DHT22;22247;48.586;13.492;2023-01-05T19:46:22;9.00;99.90
36212;DHT22;22247;48.586;13.492;2023-01-05T19:51:20;7.90;99.90
36212;DHT22;22247;48.586;13.492;2023-01-05T19:54:00;7.80;99.90
36212;DHT22;22247;48.586;13.492;2023-01-05T19:56:33;8.60;99.90
36212;DHT22;22247;48.586;13.492;2023-01-05T19:59:06;7.80;99.90
36212;DHT22;22247;48.586;13.492;2023-01-05T20:01:34;7.70;99.90
36212;DHT22;22247;48.586;13.492;2023-01-05T20:04:00;7.70;99.90
36212;DHT22;22247;48.586;13.492;2023-01-05T20:06:32;7.80;99.90
36212;DHT22;22247;48.586;13.492;2023-01-05T20:08:59;7.70;99.90
36212;DHT22;22247;48.586;13.492;2023-01-05T20:11:33;7.40;99.90
36212;DHT22;22247;48.586;13.492;2023-01-05T20:14:21;7.60;99.90
36212;DHT22;22247;48.586;13.492;2023-01-05T20:16:54;8.00;99.90
36212;DHT22;22247;48.586;13.492;2023-01-05T20:19:23;7.70;99.90
36212;DHT22;22247;48.586;13.492;2023-01-05T20:21:54;7.60;99.90
36212;DHT22;22247;48.586;13.492;2023-01-05T20:24:22;7.90;99.90
36212;DHT22;22247;48.586;13.492;2023-01-05T20:26:50;7.70;99.90
36212;DHT22;22247;48.586;13.492;2023-01-05T20:29:18;7.60;99.90
36212;DHT22;22247;48.586;13.492;2023-01-05T20:31:47;7.70;99.90
36212;DHT22;22247;48.586;13.492;2023-01-05T20:34:16;7.80;99.90
36212;DHT22;22247;48.586;13.492;2023-01-05T20:39:13;7.70;99.90
36212;DHT22;22247;48.586;13.492;2023-01-05T20:41:45;7.90;99.90
36212;DHT22;22247;48.586;13.492;2023-01-05T20:44:19;7.70;99.90
36212;DHT22;22247;48.586;13.492;2023-01-05T20:46:46;7.60;99.90
36212;DHT22;22247;48.586;13.492;2023-01-05T20:49:15;7.80;99.90
36212;DHT22;22247;48.586;13.492;2023-01-05T20:51:43;7.50;99.90
36212;DHT22;22247;48.586;13.492;2023-01-05T20:54:09;7.50;99.90
36212;DHT22;22247;48.586;13.492;2023-01-05T20:56:38;7.50;99.90
36212;DHT22;22247;48.586;13.492;2023-01-05T20:59:18;7.50;99.90
36212;DHT22;22247;48.586;13.492;2023-01-05T21:04:14;7.40;99.90
36212;DHT22;22247;48.586;13.492;2023-01-05T21:06:40;7.30;99.90
36212;DHT22;22247;48.586;13.492;2023-01-05T21:09:09;7.50;99.90
36212;DHT22;22247;48.586;13.492;2023-01-05T21:11:37;7.40;99.90
36212;DHT22;22247;48.586;13.492;2023-01-05T21:14:09;7.40;99.90